Time;durP1;ratioP1;P1;durP2;ratioP2;P2;SDS_P1;SDS_P2;PMS_P1;PMS_P2;Temp;Humidity;BMP_temperature;BMP_pressure;BME280_temperature;BME280_humidity;BME280_pressure;Samples;Min_cycle;Max_cycle;Signal;HPM_P1;HPM_P2
2023/01/21 00:04:33;;;;;;;4.13;3.08;;;;;;;18.38;31.33;102367.50;16128486;19;129420;-50
2023/01/21 00:09:55;;;;;;;4.82;3.55;;;;;;;18.33;31.47;102370.91;16127914;19;129187;-50
2023/01/21 00:15:16;;;;;;;4.90;3.70;;;;;;;18.28;31.07;102387.28;16130336;19;129106;-52
2023/01/21 00:20:38;;;;;;;5.45;3.13;;;;;;;18.25;31.36;102393.22;16131072;19;130629;-50
2023/01/21 00:26:02;;;;;;;3.28;2.65;;;;;;;18.19;31.56;102389.38;16130115;19;129722;-51
2023/01/21 00:31:24;;;;;;;3.38;2.72;;;;;;;18.16;31.18;102406.41;16130147;19;129566;-53
2023/01/21 00:36:46;;;;;;;6.15;2.90;;;;;;;18.14;31.60;102397.47;16132916;19;129284;-50
2023/01/21 00:42:10;;;;;;;3.70;2.80;;;;;;;18.10;31.19;102405.31;16129683;19;129114;-50
2023/01/21 00:47:31;;;;;;;3.95;3.30;;;;;;;18.07;31.13;102430.66;16130403;19;129873;-54
2023/01/21 00:52:53;;;;;;;7.03;3.78;;;;;;;18.03;31.08;102434.06;16127523;19;129602;-51
2023/01/21 00:58:15;;;;;;;5.47;4.00;;;;;;;17.99;31.10;102440.00;16127885;19;129740;-51
2023/01/21 01:03:38;;;;;;;4.63;3.83;;;;;;;17.96;31.12;102451.47;16124564;19;129349;-49
2023/01/21 01:09:00;;;;;;;5.10;3.42;;;;;;;17.92;31.49;102457.63;16127156;19;129228;-51
2023/01/21 01:14:22;;;;;;;4.18;2.78;;;;;;;17.91;31.56;102469.75;16123946;19;130479;-53
2023/01/21 01:19:44;;;;;;;5.05;3.10;;;;;;;17.88;31.12;102475.69;16127601;19;129398;-55
2023/01/21 01:25:06;;;;;;;5.43;4.72;;;;;;;17.82;31.24;102489.31;16125957;19;129393;-50
2023/01/21 01:30:28;;;;;;;7.60;5.05;;;;;;;17.76;30.84;102498.41;16126198;19;135895;-52
2023/01/21 01:35:50;;;;;;;5.13;4.30;;;;;;;17.74;31.24;102497.75;16123463;19;130326;-51
2023/01/21 01:41:16;;;;;;;5.38;4.70;;;;;;;17.70;30.89;102510.31;16125462;19;129900;-51
2023/01/21 01:46:38;;;;;;;5.50;4.60;;;;;;;17.67;31.21;102521.78;16124241;19;130678;-52
2023/01/21 01:52:03;;;;;;;5.82;5.03;;;;;;;17.68;30.88;102531.78;16121466;19;129315;-52
2023/01/21 01:57:30;;;;;;;;;;;;;;;17.62;31.00;102535.34;16125421;19;129342;-51
2023/01/21 02:08:35;;;;;;;5.15;4.20;;;;;;;17.58;31.24;102550.66;16123545;19;129774;-53
2023/01/21 02:13:58;;;;;;;7.70;4.68;;;;;;;17.55;31.16;102560.19;16121748;19;130164;-51
2023/01/21 02:19:42;;;;;;;6.43;4.35;;;;;;;17.53;30.98;102557.59;16121267;19;130819;-50
2023/01/21 02:25:40;;;;;;;4.68;3.95;;;;;;;17.50;30.90;102566.28;16123371;19;129786;-50
2023/01/21 02:31:29;;;;;;;4.85;4.20;;;;;;;17.49;31.28;102567.34;16125171;19;129838;-52
2023/01/21 02:37:04;;;;;;;5.50;4.53;;;;;;;17.46;31.36;102566.91;16125244;19;129637;-51
2023/01/21 02:42:43;;;;;;;6.63;4.05;;;;;;;17.44;30.93;102564.34;16124719;19;129923;-50
2023/01/21 02:48:25;;;;;;;4.95;3.55;;;;;;;17.44;31.00;102574.53;16122559;19;129742;-52
2023/01/21 02:53:46;;;;;;;3.90;3.35;;;;;;;17.40;31.36;102587.91;16124724;19;130426;-51
2023/01/21 02:59:09;;;;;;;5.30;4.63;;;;;;;17.36;30.98;102595.75;16120236;19;130259;-53
2023/01/21 03:04:57;;;;;;;6.32;5.20;;;;;;;17.34;31.19;102610.84;16122604;19;129984;-53
2023/01/21 03:10:30;;;;;;;6.07;5.10;;;;;;;17.32;30.74;102616.56;16118886;19;130028;-54
2023/01/21 03:21:37;;;;;;;7.28;5.68;;;;;;;17.24;30.73;102636.91;16118763;19;131674;-51
2023/01/21 03:27:00;;;;;;;5.80;5.10;;;;;;;17.22;31.07;102632.63;16119886;19;129836;-50
2023/01/21 03:32:24;;;;;;;5.75;4.68;;;;;;;17.20;30.74;102641.13;16120350;19;129430;-52
2023/01/21 03:37:51;;;;;;;6.68;4.88;;;;;;;17.20;30.83;102637.47;16121283;19;129411;-51
2023/01/21 03:43:13;;;;;;;5.93;5.03;;;;;;;17.16;30.98;102648.09;16120192;19;129457;-58
2023/01/21 03:48:56;;;;;;;6.13;5.53;;;;;;;17.16;30.91;102642.56;16117215;19;129432;-56
2023/01/21 03:54:18;;;;;;;6.03;4.30;;;;;;;17.13;30.75;102642.94;16117000;19;129324;-49
2023/01/21 03:59:39;;;;;;;6.38;4.63;;;;;;;17.10;30.96;102654.41;16118097;19;129630;-54
2023/01/21 04:05:02;;;;;;;4.80;4.30;;;;;;;17.08;30.73;102653.75;16118437;19;129262;-54
2023/01/21 04:10:24;;;;;;;5.60;4.72;;;;;;;17.07;30.79;102663.09;16117691;19;130555;-55
2023/01/21 04:15:45;;;;;;;7.68;5.20;;;;;;;17.04;31.08;102657.94;16132010;19;129326;-51
2023/01/21 04:21:08;;;;;;;6.30;5.00;;;;;;;17.02;31.10;102660.03;16135169;19;130802;-51
2023/01/21 04:26:30;;;;;;;7.53;5.18;;;;;;;17.00;30.82;102662.13;16132985;19;130407;-52
2023/01/21 04:31:51;;;;;;;7.93;5.60;;;;;;;16.99;30.82;102669.56;16132013;19;129560;-49
2023/01/21 04:37:13;;;;;;;7.20;5.22;;;;;;;16.97;30.65;102679.13;16132548;19;129543;-53
2023/01/21 04:42:35;;;;;;;8.02;6.47;;;;;;;16.94;30.59;102680.34;16132907;19;130198;-51
2023/01/21 04:47:57;;;;;;;7.40;5.82;;;;;;;16.92;30.45;102693.53;16131796;19;129127;-53
2023/01/21 04:53:18;;;;;;;7.43;5.72;;;;;;;16.90;30.48;102696.47;16128803;19;129950;-51
2023/01/21 04:58:40;;;;;;;7.57;5.55;;;;;;;16.88;30.63;102698.56;16129143;19;129515;-52
2023/01/21 05:04:02;;;;;;;8.60;6.10;;;;;;;16.87;31.07;102718.94;16126579;19;129598;-49
2023/01/21 05:09:24;;;;;;;5.97;5.30;;;;;;;16.85;30.51;102721.06;16128553;19;131643;-50
2023/01/21 05:14:46;;;;;;;9.38;6.03;;;;;;;16.84;30.92;102727.66;16129472;19;130793;-54
2023/01/21 05:20:08;;;;;;;6.45;5.72;;;;;;;16.81;30.83;102724.38;16128217;19;131212;-50
2023/01/21 05:25:30;;;;;;;6.65;5.63;;;;;;;16.79;30.82;102727.34;16124335;19;130497;-54
2023/01/21 05:30:51;;;;;;;7.57;5.82;;;;;;;16.78;30.59;102731.16;16127602;19;130728;-56
2023/01/21 05:36:13;;;;;;;7.20;5.30;;;;;;;16.75;30.58;102742.56;16126746;19;129504;-52
2023/01/21 05:41:35;;;;;;;7.25;6.18;;;;;;;16.72;30.59;102746.59;16123034;19;129528;-50
2023/01/21 05:46:57;;;;;;;8.77;6.63;;;;;;;16.72;30.46;102748.50;16125604;19;129343;-55
2023/01/21 05:52:19;;;;;;;8.93;6.25;;;;;;;16.70;30.29;102756.13;16126879;19;129505;-54
2023/01/21 05:57:40;;;;;;;6.50;5.82;;;;;;;16.68;30.70;102758.22;16123653;19;131374;-53
2023/01/21 06:03:03;;;;;;;5.63;4.78;;;;;;;16.68;30.68;102766.50;16124953;19;130278;-52
2023/01/21 06:08:24;;;;;;;8.77;5.93;;;;;;;16.66;30.89;102782.38;16126132;19;129663;-52
2023/01/21 06:13:46;;;;;;;7.13;6.13;;;;;;;16.63;30.41;102797.44;16126040;19;129447;-54
2023/01/21 06:19:08;;;;;;;8.15;6.40;;;;;;;16.60;30.47;102790.38;16127232;19;130138;-52
2023/01/21 06:24:30;;;;;;;7.55;5.50;;;;;;;16.58;30.62;102802.66;16122733;19;130350;-51
2023/01/21 06:29:52;;;;;;;7.05;5.03;;;;;;;16.57;30.73;102806.47;16125300;19;129538;-53
2023/01/21 06:35:14;;;;;;;7.45;5.68;;;;;;;16.56;30.27;102816.66;16120827;19;130145;-53
2023/01/21 06:40:35;;;;;;;5.57;4.10;;;;;;;16.58;30.60;102820.09;16119333;19;129681;-52
2023/01/21 06:45:57;;;;;;;6.05;4.68;;;;;;;16.76;30.63;102821.69;16120137;19;129885;-52
2023/01/21 06:51:19;;;;;;;4.07;2.97;;;;;;;17.32;30.23;102837.88;16121620;19;129553;-56
2023/01/21 06:56:42;;;;;;;3.55;2.80;;;;;;;18.02;29.59;102839.44;16120829;19;129562;-52
2023/01/21 07:02:04;;;;;;;4.13;2.70;;;;;;;18.62;28.89;102842.84;16119149;19;130219;-58
2023/01/21 07:07:26;;;;;;;3.15;2.70;;;;;;;19.16;28.26;102865.47;16120441;19;129413;-56
2023/01/21 07:12:48;;;;;;;3.30;2.80;;;;;;;19.55;28.02;102872.34;16119144;19;135204;-57
2023/01/21 07:18:09;;;;;;;5.15;2.83;;;;;;;19.76;27.59;102878.88;16119513;19;129986;-56
2023/01/21 07:23:31;;;;;;;10.52;3.22;;;;;;;19.81;27.71;102879.13;16118028;19;130143;-62
2023/01/21 07:28:53;;;;;;;3.90;3.25;;;;;;;19.61;27.84;102888.19;16118864;19;129528;-67
2023/01/21 07:34:15;;;;;;;4.03;2.97;;;;;;;19.43;27.97;102888.72;16119527;19;129013;-61
2023/01/21 07:39:36;;;;;;;5.20;3.22;;;;;;;19.23;27.92;102896.91;16118169;19;129681;-62
2023/01/21 07:45:01;;;;;;;7.97;3.92;;;;;;;19.06;27.97;102902.75;16116184;19;129542;-64
2023/01/21 07:50:23;;;;;;;9.25;4.15;;;;;;;19.08;28.04;102914.47;16132140;19;131405;-55
2023/01/21 07:55:45;;;;;;;5.82;4.00;;;;;;;19.26;27.91;102920.63;16135339;19;129801;-56
2023/01/21 08:01:08;;;;;;;9.20;3.95;;;;;;;19.34;27.73;102935.19;16136374;19;130223;-52
2023/01/21 08:06:30;;;;;;;7.60;3.67;;;;;;;19.51;27.66;102946.84;16134974;19;130577;-56
2023/01/21 08:11:52;;;;;;;6.63;3.67;;;;;;;19.79;27.68;102959.00;16132466;19;129541;-53
2023/01/21 08:17:13;;;;;;;5.85;4.18;;;;;;;19.86;27.67;102967.38;16126991;19;130551;-53
2023/01/21 08:22:36;;;;;;;12.68;3.80;;;;;;;20.23;27.55;102970.78;16126546;19;129366;-54
2023/01/21 08:28:00;;;;;;;8.23;3.67;;;;;;;20.37;27.12;102982.81;16125694;19;130588;-55
2023/01/21 08:33:22;;;;;;;9.32;3.55;;;;;;;20.45;27.53;102988.16;16127172;19;131444;-52
2023/01/21 08:38:44;;;;;;;5.00;2.80;;;;;;;20.56;27.24;102990.34;16127660;19;129842;-53
2023/01/21 08:44:09;;;;;;;8.40;3.37;;;;;;;20.87;27.04;102994.53;16130732;19;129539;-51
2023/01/21 08:49:31;;;;;;;7.25;3.22;;;;;;;20.98;26.76;103003.31;16129246;19;130005;-48
2023/01/21 08:54:52;;;;;;;4.90;3.28;;;;;;;21.06;27.04;103011.44;16130707;19;129565;-50
2023/01/21 09:00:15;;;;;;;5.07;2.78;;;;;;;21.09;26.78;103013.81;16127447;19;129550;-50
2023/01/21 09:05:36;;;;;;;5.65;3.50;;;;;;;21.08;27.08;103026.00;16125120;19;129803;-59
2023/01/21 09:10:59;;;;;;;4.80;3.58;;;;;;;21.01;26.93;103027.94;16130362;19;129306;-60
2023/01/21 09:16:22;;;;;;;6.10;3.42;;;;;;;20.87;27.26;103025.13;16127526;19;129368;-59
2023/01/21 09:21:43;;;;;;;7.50;3.75;;;;;;;20.77;26.84;103032.16;16130558;19;130936;-60
2023/01/21 09:27:06;;;;;;;5.40;3.30;;;;;;;20.63;26.86;103031.22;16126127;19;129353;-60
2023/01/21 09:32:28;;;;;;;6.57;3.55;;;;;;;20.50;27.34;103038.47;16127960;19;135826;-60
2023/01/21 09:37:49;;;;;;;11.48;3.53;;;;;;;20.34;27.44;103042.47;16127360;19;130715;-60
2023/01/21 09:43:22;;;;;;;9.65;3.70;;;;;;;20.20;27.49;103044.28;16125970;19;129336;-58
2023/01/21 09:48:47;;;;;;;7.25;3.83;;;;;;;20.08;27.94;103043.16;16125749;19;129519;-62
2023/01/21 09:54:16;;;;;;;;;;;;;;;19.92;28.10;103053.53;16124184;19;129995;-61
2023/01/21 09:59:58;;;;;;;11.73;4.22;;;;;;;19.83;28.18;103054.72;16127599;19;131534;-59
2023/01/21 10:05:22;;;;;;;6.70;4.85;;;;;;;19.64;28.19;103076.59;16125538;19;129600;-59
2023/01/21 10:10:51;;;;;;;9.45;5.10;;;;;;;19.49;27.95;103070.25;16122731;19;129749;-60
2023/01/21 10:16:40;;;;;;;13.15;5.82;;;;;;;19.33;28.29;103066.69;16123203;19;131135;-60
2023/01/21 10:22:11;;;;;;;7.80;4.43;;;;;;;19.20;28.36;103080.44;16120070;19;129664;-59
2023/01/21 10:27:36;;;;;;;5.18;4.35;;;;;;;19.07;28.33;103082.00;16124015;19;130316;-59
2023/01/21 10:32:59;;;;;;;7.45;4.47;;;;;;;19.06;28.54;103099.72;16122411;19;130278;-59
2023/01/21 10:38:32;;;;;;;7.43;4.55;;;;;;;19.19;28.73;103098.13;16122485;19;130477;-59
2023/01/21 10:44:08;;;;;;;6.95;4.13;;;;;;;19.35;28.10;103111.78;16122848;19;129576;-59
2023/01/21 10:49:51;;;;;;;6.93;4.70;;;;;;;19.49;28.45;103121.09;16121012;19;129878;-59
2023/01/21 10:55:58;;;;;;;11.60;4.68;;;;;;;19.63;28.43;103115.69;16119157;19;129534;-61
2023/01/21 11:01:22;;;;;;;;;;;;;;;19.66;28.22;103126.38;16118864;19;129326;-62
2023/01/21 11:06:58;;;;;;;11.02;4.47;;;;;;;19.81;28.18;103141.03;16118383;19;129462;-60
2023/01/21 11:12:21;;;;;;;11.07;4.45;;;;;;;19.96;28.43;103140.94;16105834;19;131008;-62
2023/01/21 11:17:48;;;;;;;13.15;5.10;;;;;;;20.06;28.29;103150.91;16109816;19;129313;-63
2023/01/21 11:23:26;;;;;;;20.50;6.28;;;;;;;20.08;28.24;103149.63;16128817;19;132900;-62
2023/01/21 11:28:47;;;;;;;13.93;6.97;;;;;;;19.99;27.88;103150.81;16134928;19;130126;-62
2023/01/21 11:34:16;;;;;;;15.50;6.50;;;;;;;19.84;27.64;103154.53;16134722;19;129315;-62
2023/01/21 11:39:46;;;;;;;12.25;7.00;;;;;;;19.66;27.57;103166.13;16134684;19;129296;-62
2023/01/21 11:45:37;;;;;;;13.38;6.78;;;;;;;19.47;27.51;103159.31;16127967;19;130164;-61
2023/01/21 11:51:06;;;;;;;19.13;8.98;;;;;;;19.31;27.51;103162.31;16129134;19;130214;-62
2023/01/21 11:56:28;;;;;;;14.50;7.57;;;;;;;19.15;27.88;103168.94;16131706;19;129632;-60
2023/01/21 12:02:03;;;;;;;16.15;7.43;;;;;;;19.04;28.24;103179.50;16132005;19;130527;-61
2023/01/21 12:07:31;;;;;;;12.53;7.40;;;;;;;18.94;28.13;103165.06;16132280;19;129881;-61
2023/01/21 12:13:08;;;;;;;16.42;7.78;;;;;;;18.86;28.21;103160.50;16131651;19;130397;-60
2023/01/21 12:18:33;;;;;;;16.40;7.65;;;;;;;18.77;27.99;103153.31;16133160;19;132823;-60
2023/01/21 12:24:13;;;;;;;15.97;7.63;;;;;;;18.71;28.39;103157.72;16131272;19;129613;-60
2023/01/21 12:30:05;;;;;;;11.05;6.72;;;;;;;18.68;28.63;103155.34;16130472;19;130132;-61
2023/01/21 12:35:38;;;;;;;10.55;6.88;;;;;;;18.63;28.79;103146.75;16130314;19;130156;-63
2023/01/21 12:41:15;;;;;;;13.98;6.65;;;;;;;18.65;28.35;103147.41;16128884;19;129914;-59
2023/01/21 12:46:43;;;;;;;8.23;5.72;;;;;;;18.76;28.44;103140.53;16129584;19;129736;-62
2023/01/21 12:52:17;;;;;;;11.38;5.35;;;;;;;18.96;28.62;103134.34;16129635;19;129489;-61
2023/01/21 12:57:57;;;;;;;6.95;5.38;;;;;;;19.14;28.29;103137.56;16127698;19;129683;-61
2023/01/21 13:03:23;;;;;;;7.70;5.07;;;;;;;19.29;28.38;103137.56;16126278;19;129579;-60
2023/01/21 13:09:26;;;;;;;15.52;7.03;;;;;;;19.41;28.40;103140.66;16119218;19;130959;-61
2023/01/21 13:15:17;;;;;;;12.20;6.05;;;;;;;19.54;27.94;103145.50;16114028;19;130599;-63
2023/01/21 13:20:51;;;;;;;14.38;4.97;;;;;;;19.75;28.01;103158.50;16121809;19;130166;-63
2023/01/21 13:26:51;;;;;;;15.07;5.38;;;;;;;19.87;28.03;103152.41;16117740;19;129849;-63
2023/01/21 13:32:22;;;;;;;12.05;4.90;;;;;;;20.01;28.09;103150.63;16115241;19;130061;-63
2023/01/21 13:37:46;;;;;;;13.80;5.20;;;;;;;20.08;28.53;103146.84;16117835;19;129786;-63
2023/01/21 13:43:11;;;;;;;11.55;5.03;;;;;;;20.09;28.59;103143.00;16118062;19;130307;-63
2023/01/21 13:48:41;;;;;;;14.37;5.53;;;;;;;20.05;28.78;103138.91;16107144;19;131415;-62
2023/01/21 13:54:26;;;;;;;14.70;6.10;;;;;;;19.95;29.48;103139.22;16114036;19;129307;-63
2023/01/21 13:59:54;;;;;;;13.18;5.50;;;;;;;19.81;29.64;103135.47;16114658;19;131089;-63
2023/01/21 14:05:18;;;;;;;12.70;5.75;;;;;;;19.73;29.86;103140.31;16105066;19;131593;-63
2023/01/21 14:11:04;;;;;;;15.77;5.68;;;;;;;19.66;30.06;103127.25;16106644;19;129745;-62
2023/01/21 14:16:32;;;;;;;11.45;4.97;;;;;;;19.79;30.08;103143.16;16108898;19;130016;-62
2023/01/21 14:22:09;;;;;;;8.23;4.82;;;;;;;20.04;29.94;103150.22;16111539;19;131512;-62
2023/01/21 14:27:37;;;;;;;11.68;4.60;;;;;;;20.39;29.31;103153.03;16124651;19;129358;-62
2023/01/21 14:33:45;;;;;;;8.23;4.45;;;;;;;20.71;29.61;103153.41;16121402;19;130931;-61
2023/01/21 14:39:18;;;;;;;6.30;3.30;;;;;;;21.03;29.41;103154.66;16109572;19;131894;-61
2023/01/21 14:44:49;;;;;;;7.70;3.85;;;;;;;21.24;29.14;103149.16;16104136;19;131862;-61
2023/01/21 14:50:43;;;;;;;8.27;3.30;;;;;;;21.41;28.87;103149.63;16110794;19;135330;-62
2023/01/21 14:56:17;;;;;;;7.75;3.85;;;;;;;21.55;28.91;103150.53;16089999;19;131265;-59
2023/01/21 15:01:46;;;;;;;8.98;3.60;;;;;;;21.66;28.28;103159.13;16093377;19;129683;-52
2023/01/21 15:07:16;;;;;;;7.57;3.70;;;;;;;21.80;28.54;103159.97;16105783;19;130413;-57
2023/01/21 15:12:44;;;;;;;10.07;3.97;;;;;;;21.89;28.21;103162.56;16115459;19;130713;-62
2023/01/21 15:18:09;;;;;;;10.32;4.18;;;;;;;22.02;28.22;103167.28;16117182;19;129376;-62
2023/01/21 15:23:31;;;;;;;8.57;3.33;;;;;;;22.09;28.23;103177.34;16121391;19;130364;-56
2023/01/21 15:28:55;;;;;;;8.38;3.60;;;;;;;22.12;28.20;103176.03;16116179;19;130440;-64
2023/01/21 15:34:20;;;;;;;7.03;3.55;;;;;;;22.14;27.75;103179.47;16117443;19;129472;-62
2023/01/21 15:39:42;;;;;;;;;;;;;;;22.09;27.69;103185.72;16115017;19;128948;-64
2023/01/21 15:45:22;;;;;;;5.28;3.03;;;;;;;22.13;27.70;103200.94;16116852;19;130187;-61
2023/01/21 15:50:56;;;;;;;5.40;3.15;;;;;;;22.13;27.90;103188.91;16116577;19;130059;-60
2023/01/21 15:56:17;;;;;;;5.78;2.97;;;;;;;22.16;27.68;103193.19;16110403;19;130453;-59
2023/01/21 16:01:40;;;;;;;9.02;3.50;;;;;;;22.16;27.95;103201.56;16117064;19;129811;-60
2023/01/21 16:07:07;;;;;;;6.90;3.33;;;;;;;22.13;28.11;103197.28;16111854;19;130128;-61
2023/01/21 16:12:56;;;;;;;12.10;3.53;;;;;;;22.14;28.45;103182.28;16129232;19;131041;-61
2023/01/21 16:18:42;;;;;;;8.55;2.95;;;;;;;22.23;28.02;103182.94;16116166;19;130259;-63
2023/01/21 16:24:09;;;;;;;7.85;3.40;;;;;;;22.21;28.20;103177.59;16132255;19;130892;-64
2023/01/21 16:29:37;;;;;;;5.15;3.08;;;;;;;22.13;28.10;103180.56;16131066;19;133310;-63
2023/01/21 16:34:59;;;;;;;6.97;3.67;;;;;;;22.02;28.12;103184.88;16129537;19;129563;-59
2023/01/21 16:40:28;;;;;;;6.03;3.50;;;;;;;22.05;27.92;103183.56;16128902;19;129319;-62
2023/01/21 16:45:59;;;;;;;6.68;3.53;;;;;;;22.11;28.20;103177.13;16130149;19;129945;-64
2023/01/21 16:51:27;;;;;;;6.55;3.55;;;;;;;22.19;28.02;103174.13;16130999;19;129486;-63
2023/01/21 16:57:19;;;;;;;5.55;3.65;;;;;;;22.31;27.57;103188.28;16126788;19;129972;-63
2023/01/21 17:02:40;;;;;;;5.47;2.72;;;;;;;22.37;27.75;103186.56;16126019;19;130535;-64
2023/01/21 17:08:10;;;;;;;7.15;4.00;;;;;;;22.46;27.84;103195.56;16123612;19;128885;-61
2023/01/21 17:13:32;;;;;;;7.20;3.42;;;;;;;22.51;27.57;103196.63;16123841;19;129535;-62
2023/01/21 17:18:55;;;;;;;5.70;3.17;;;;;;;22.52;27.89;103203.91;16126305;19;129479;-63
2023/01/21 17:24:22;;;;;;;11.50;5.07;;;;;;;22.40;27.59;103200.91;16120616;19;130202;-61
2023/01/21 17:29:44;;;;;;;16.23;6.60;;;;;;;22.28;27.50;103211.03;16116813;19;130154;-60
2023/01/21 17:35:13;;;;;;;17.25;8.40;;;;;;;22.10;27.95;103204.16;16121367;19;131442;-65
2023/01/21 17:40:57;;;;;;;27.42;10.90;;;;;;;21.88;27.92;103202.66;16131845;19;131384;-62
2023/01/21 17:46:21;;;;;;;35.40;12.50;;;;;;;21.63;28.06;103204.09;16124097;19;129604;-61
2023/01/21 17:51:43;;;;;;;28.25;12.50;;;;;;;21.42;27.89;103209.81;16127048;19;130155;-62
2023/01/21 17:57:34;;;;;;;30.50;11.57;;;;;;;21.23;28.13;103209.56;16123131;19;134120;-62
2023/01/21 18:02:57;;;;;;;30.40;11.18;;;;;;;21.02;28.32;103208.59;16125307;19;129686;-62
2023/01/21 18:08:18;;;;;;;19.13;9.68;;;;;;;20.87;28.62;103211.53;16123612;19;129449;-63
2023/01/21 18:13:40;;;;;;;27.80;11.48;;;;;;;20.68;28.57;103212.22;16124822;19;129517;-60
2023/01/21 18:19:02;;;;;;;21.10;11.60;;;;;;;20.52;28.10;103219.84;16120586;19;129855;-63
2023/01/21 18:24:24;;;;;;;22.40;12.13;;;;;;;20.38;28.21;103218.03;16101547;19;130801;-62
2023/01/21 18:29:46;;;;;;;21.23;11.77;;;;;;;20.23;28.42;103227.34;16109282;19;131293;-60
2023/01/21 18:35:09;;;;;;;21.52;13.48;;;;;;;20.11;28.24;103240.94;16108414;19;129887;-56
2023/01/21 18:40:31;;;;;;;21.48;11.77;;;;;;;20.05;28.27;103243.66;16110254;19;130939;-59
2023/01/21 18:45:53;;;;;;;18.02;11.48;;;;;;;20.08;28.15;103251.56;16095663;19;132043;-55
2023/01/21 18:51:15;;;;;;;24.02;11.45;;;;;;;20.12;28.13;103256.50;16110620;19;129548;-52
2023/01/21 18:56:37;;;;;;;17.48;9.75;;;;;;;20.26;28.20;103251.94;16107293;19;130843;-58
2023/01/21 19:01:59;;;;;;;19.55;8.73;;;;;;;20.60;28.03;103250.28;16111334;19;129787;-59
2023/01/21 19:07:22;;;;;;;23.42;8.82;;;;;;;21.00;27.84;103260.81;16117809;19;129347;-55
2023/01/21 19:12:45;;;;;;;17.50;8.18;;;;;;;21.35;27.53;103262.69;16110288;19;131007;-52
2023/01/21 19:18:12;;;;;;;15.05;7.47;;;;;;;21.69;27.43;103263.69;16112928;19;130314;-47
2023/01/21 19:23:34;;;;;;;20.85;7.07;;;;;;;21.96;27.07;103264.63;16117077;19;129424;-54
2023/01/21 19:28:56;;;;;;;14.00;7.18;;;;;;;22.19;26.78;103259.69;16111655;19;129667;-58
2023/01/21 19:34:20;;;;;;;14.07;7.22;;;;;;;22.31;26.83;103277.53;16102674;19;130000;-55
2023/01/21 19:39:42;;;;;;;11.82;6.70;;;;;;;22.31;26.58;103283.09;16101568;19;129693;-54
2023/01/21 19:45:07;;;;;;;12.90;7.03;;;;;;;22.21;27.06;103277.09;16103536;19;132093;-54
2023/01/21 19:50:29;;;;;;;17.43;8.03;;;;;;;22.01;27.25;103277.03;16128928;19;130575;-62
2023/01/21 19:55:51;;;;;;;18.55;8.10;;;;;;;21.79;27.33;103280.84;16128731;19;131896;-62
2023/01/21 20:01:13;;;;;;;15.70;7.35;;;;;;;21.61;27.22;103284.22;16130874;19;131707;-67
2023/01/21 20:06:39;;;;;;;16.30;7.65;;;;;;;21.43;27.55;103270.84;16130505;19;129463;-62
2023/01/21 20:12:01;;;;;;;16.52;8.05;;;;;;;21.26;27.47;103275.09;16127568;19;129523;-63
2023/01/21 20:17:26;;;;;;;14.57;8.20;;;;;;;21.08;27.46;103284.84;16131336;19;129055;-62
2023/01/21 20:22:48;;;;;;;17.45;7.78;;;;;;;20.94;27.83;103289.47;16133126;19;131974;-55
2023/01/21 20:28:34;;;;;;;18.55;7.28;;;;;;;20.89;28.21;103297.56;16131186;19;129826;-58
2023/01/21 20:33:56;;;;;;;13.47;6.77;;;;;;;20.85;28.44;103301.84;16130010;19;129723;-56
2023/01/21 20:39:19;;;;;;;11.45;5.80;;;;;;;20.86;28.54;103306.34;16127293;19;129415;-49
2023/01/21 20:44:40;;;;;;;14.10;5.72;;;;;;;20.85;28.65;103296.28;16128367;19;131355;-50
2023/01/21 20:50:04;;;;;;;15.45;6.28;;;;;;;20.87;28.37;103291.34;16126365;19;129246;-53
2023/01/21 20:55:27;;;;;;;10.88;6.22;;;;;;;20.85;28.25;103294.34;16126377;19;130039;-52
2023/01/21 21:00:49;;;;;;;14.85;6.03;;;;;;;20.84;28.26;103292.63;16126308;19;129925;-47
2023/01/21 21:06:24;;;;;;;15.68;6.55;;;;;;;20.86;28.56;103287.72;16126015;19;129746;-55
2023/01/21 21:11:45;;;;;;;9.32;5.80;;;;;;;20.85;28.42;103293.50;16125146;19;130344;-53
2023/01/21 21:17:13;;;;;;;15.43;6.38;;;;;;;20.84;28.50;103289.84;16125042;19;132774;-55
2023/01/21 21:22:34;;;;;;;14.95;5.63;;;;;;;20.80;28.32;103288.53;16126608;19;130865;-55
2023/01/21 21:27:57;;;;;;;8.38;5.25;;;;;;;20.75;28.49;103286.34;16119972;19;129083;-56
2023/01/21 21:33:20;;;;;;;8.32;5.35;;;;;;;20.71;28.19;103300.84;16111930;19;129620;-54
2023/01/21 21:38:45;;;;;;;15.02;10.07;;;;;;;20.51;27.20;103307.13;16108204;19;130607;-56
2023/01/21 21:44:08;;;;;;;11.60;7.85;;;;;;;20.29;27.60;103298.81;16118696;19;129718;-55
2023/01/21 21:49:29;;;;;;;11.50;8.07;;;;;;;20.18;27.15;103295.69;16120866;19;130821;-56
2023/01/21 21:54:53;;;;;;;9.10;6.53;;;;;;;20.09;27.25;103303.31;16118259;19;130577;-53
2023/01/21 22:00:15;;;;;;;9.80;6.47;;;;;;;20.01;27.54;103300.66;16122594;19;129765;-56
2023/01/21 22:05:37;;;;;;;8.93;5.65;;;;;;;19.93;27.83;103287.72;16117234;19;129786;-55
2023/01/21 22:11:00;;;;;;;10.00;6.10;;;;;;;19.82;27.55;103298.31;16120228;19;129610;-54
2023/01/21 22:16:27;;;;;;;7.85;5.40;;;;;;;19.75;27.58;103288.19;16123491;19;130549;-56
2023/01/21 22:21:49;;;;;;;7.00;5.53;;;;;;;19.63;28.05;103283.13;16122295;19;129615;-52
2023/01/21 22:27:11;;;;;;;7.03;4.97;;;;;;;19.55;27.75;103269.38;16119739;19;134282;-54
2023/01/21 22:32:33;;;;;;;7.22;5.28;;;;;;;19.47;27.58;103272.25;16114116;19;130679;-56
2023/01/21 22:37:55;;;;;;;6.50;4.97;;;;;;;19.36;27.61;103268.09;16118360;19;130439;-52
2023/01/21 22:43:19;;;;;;;6.15;4.70;;;;;;;19.28;28.07;103266.28;16115101;19;130819;-56
2023/01/21 22:48:41;;;;;;;6.63;5.57;;;;;;;19.23;27.73;103277.06;16116574;19;129725;-57
2023/01/21 22:54:03;;;;;;;7.00;5.97;;;;;;;19.16;27.69;103276.97;16117703;19;129440;-54
2023/01/21 22:59:25;;;;;;;7.00;5.80;;;;;;;19.09;27.84;103292.66;16119216;19;129573;-54
2023/01/21 23:04:47;;;;;;;7.47;5.20;;;;;;;19.03;27.71;103297.06;16117487;19;129599;-55
2023/01/21 23:10:09;;;;;;;6.82;5.80;;;;;;;18.98;27.60;103285.66;16116716;19;129992;-53
2023/01/21 23:15:31;;;;;;;8.27;6.65;;;;;;;18.90;27.90;103289.41;16120945;19;133402;-56
2023/01/21 23:20:53;;;;;;;7.60;6.00;;;;;;;18.84;27.97;103278.19;16120931;19;130926;-57
2023/01/21 23:26:17;;;;;;;9.25;6.88;;;;;;;18.78;27.62;103274.28;16119503;19;129777;-59
2023/01/21 23:31:39;;;;;;;6.77;5.50;;;;;;;18.74;27.58;103267.41;16120361;19;129748;-59
2023/01/21 23:37:01;;;;;;;9.38;6.25;;;;;;;18.70;27.71;103247.53;16118942;19;129875;-58
2023/01/21 23:42:23;;;;;;;7.80;5.90;;;;;;;18.64;27.89;103239.09;16120553;19;131072;-54
2023/01/21 23:47:46;;;;;;;8.23;6.38;;;;;;;18.59;27.76;103239.66;16119417;19;129404;-57
2023/01/21 23:53:08;;;;;;;8.68;6.97;;;;;;;18.54;27.84;103236.59;16107903;19;130360;-55
2023/01/21 23:58:29;;;;;;;9.13;6.43;;;;;;;18.49;27.93;103236.28;16115815;19;129575;-56
